Time;durP1;ratioP1;P1;durP2;ratioP2;P2;SDS_P1;SDS_P2;PMS_P1;PMS_P2;Temp;Humidity;BMP_temperature;BMP_pressure;BME280_temperature;BME280_humidity;BME280_pressure;Samples;Min_cycle;Max_cycle;Signal;HPM_P1;HPM_P2
2021/10/24 00:00:26;;;;;;;29.85;13.65;;;4.00;99.90;;;;;;25312171;23;20014;-54
2021/10/24 00:10:29;;;;;;;27.90;13.57;;;4.10;99.90;;;;;;25339466;23;20017;-57
2021/10/24 00:20:34;;;;;;;31.33;15.40;;;4.10;99.90;;;;;;25312232;23;20333;-55
2021/10/24 00:30:37;;;;;;;30.95;15.60;;;4.40;99.90;;;;;;25338529;23;20018;-55
2021/10/24 00:40:42;;;;;;;24.00;12.65;;;5.10;99.90;;;;;;25332435;23;20071;-54
2021/10/24 00:50:46;;;;;;;22.45;12.27;;;5.60;99.90;;;;;;25290106;23;20521;-55
2021/10/24 01:00:49;;;;;;;22.52;12.38;;;5.80;99.90;;;;;;25321594;23;20013;-57
2021/10/24 01:10:52;;;;;;;20.75;11.57;;;6.00;99.90;;;;;;25289866;23;20014;-52
2021/10/24 01:20:56;;;;;;;16.25;9.27;;;6.20;99.90;;;;;;25344780;23;20063;-55
2021/10/24 01:31:00;;;;;;;18.48;9.45;;;6.30;99.90;;;;;;25316365;23;20331;-53
2021/10/24 01:41:09;;;;;;;14.20;7.95;;;6.30;99.90;;;;;;25354122;23;20055;-56
2021/10/24 01:51:12;;;;;;;13.13;7.53;;;6.40;99.90;;;;;;25309871;23;20014;-54
2021/10/24 02:01:18;;;;;;;14.60;7.63;;;6.20;99.90;;;;;;25307861;23;20040;-53
2021/10/24 02:11:44;;;;;;;15.55;8.52;;;5.80;99.90;;;;;;25309462;23;20010;-58
2021/10/24 02:21:47;;;;;;;14.30;7.78;;;5.80;99.90;;;;;;25337591;23;20083;-57
2021/10/24 02:31:51;;;;;;;12.95;7.03;;;5.90;99.90;;;;;;25311529;23;20520;-52
2021/10/24 02:42:17;;;;;;;13.35;6.80;;;5.80;99.90;;;;;;25325665;23;20325;-53
2021/10/24 02:52:21;;;;;;;16.10;7.15;;;5.80;99.90;;;;;;25338258;23;20018;-52
2021/10/24 03:02:26;;;;;;;15.25;7.13;;;5.70;99.90;;;;;;25310385;23;20018;-53
2021/10/24 03:12:30;;;;;;;12.90;7.00;;;5.50;99.90;;;;;;25316316;23;20427;-51
2021/10/24 03:22:34;;;;;;;20.60;8.50;;;5.00;99.90;;;;;;25320365;23;20030;-57
2021/10/24 03:32:39;;;;;;;21.27;9.15;;;4.50;99.90;;;;;;25317421;23;20010;-58
2021/10/24 03:42:42;;;;;;;18.85;10.07;;;4.20;99.90;;;;;;25296674;23;20376;-55
2021/10/24 03:52:47;;;;;;;15.95;8.40;;;3.90;99.90;;;;;;25300898;23;20018;-52
2021/10/24 04:03:04;;;;;;;16.13;8.68;;;3.70;99.90;;;;;;25345415;23;20014;-52
2021/10/24 04:13:13;;;;;;;20.40;9.05;;;3.60;99.90;;;;;;25315814;23;20006;-52
2021/10/24 04:23:17;;;;;;;21.15;10.80;;;3.40;99.90;;;;;;25284587;23;20053;-54
2021/10/24 04:33:20;;;;;;;24.20;12.57;;;3.30;99.90;;;;;;25308437;23;20018;-56
2021/10/24 04:43:24;;;;;;;19.73;11.15;;;3.20;99.90;;;;;;25333024;23;20014;-52
2021/10/24 04:53:27;;;;;;;23.17;11.80;;;3.20;99.90;;;;;;25305463;23;20021;-52
2021/10/24 05:03:33;;;;;;;21.80;11.32;;;3.00;99.90;;;;;;25299738;23;20048;-52
2021/10/24 05:13:39;;;;;;;21.73;11.18;;;2.80;99.90;;;;;;25299726;23;20067;-56
2021/10/24 05:23:43;;;;;;;24.33;12.52;;;2.90;99.90;;;;;;25324484;23;20022;-51
2021/10/24 05:33:46;;;;;;;19.70;9.93;;;3.00;99.90;;;;;;25276660;23;20002;-53
2021/10/24 05:44:01;;;;;;;24.35;10.20;;;3.00;99.90;;;;;;25298651;23;20014;-51
2021/10/24 05:54:06;;;;;;;22.50;11.02;;;2.90;99.90;;;;;;25437111;22;20080;-52
2021/10/24 06:04:15;;;;;;;18.50;9.27;;;2.90;99.90;;;;;;25425496;23;20017;-54
2021/10/24 06:14:36;;;;;;;20.90;10.23;;;2.90;99.90;;;;;;25330433;23;20021;-52
2021/10/24 06:24:41;;;;;;;22.13;10.98;;;3.20;99.90;;;;;;25334026;22;20022;-54
2021/10/24 06:34:44;;;;;;;18.52;9.18;;;3.40;99.90;;;;;;25429554;23;20014;-55
2021/10/24 06:45:13;;;;;;;14.38;7.47;;;3.60;99.90;;;;;;25427782;23;20013;-52
2021/10/24 06:55:36;;;;;;;16.65;8.93;;;3.80;99.90;;;;;;25317486;23;20026;-56
2021/10/24 07:05:57;;;;;;;14.73;7.40;;;4.00;99.90;;;;;;25329867;23;20347;-56
2021/10/24 07:16:15;;;;;;;12.80;6.72;;;4.40;99.90;;;;;;25381404;23;20014;-56
2021/10/24 07:26:20;;;;;;;11.90;5.80;;;5.20;99.90;;;;;;25325018;23;20014;-54
2021/10/24 07:36:23;;;;;;;11.02;6.32;;;5.90;99.90;;;;;;25406197;23;20501;-57
2021/10/24 07:46:26;;;;;;;11.52;5.50;;;6.70;99.90;;;;;;25457947;22;20010;-59
2021/10/24 07:56:30;;;;;;;7.93;4.43;;;7.70;99.90;;;;;;24620456;22;10000786;-58
2021/10/24 08:06:42;;;;;;;6.07;3.78;;;8.70;99.90;;;;;;25714482;23;20339;-59
2021/10/24 08:16:49;;;;;;;7.40;3.70;;;9.50;99.90;;;;;;25666832;23;20393;-56
2021/10/24 08:26:59;;;;;;;;;;;10.20;99.90;;;;;;25714595;23;20024;-59
2021/10/24 08:37:04;;;;;;;6.22;3.05;;;10.80;99.90;;;;;;25714080;23;19950;-59
2021/10/24 08:47:08;;;;;;;4.85;2.72;;;11.00;99.90;;;;;;25687926;23;20083;-58
2021/10/24 08:57:11;;;;;;;4.63;3.17;;;11.30;99.90;;;;;;25577203;23;20057;-56
2021/10/24 09:07:14;;;;;;;6.55;3.38;;;11.70;99.90;;;;;;25232692;23;20018;-57
2021/10/24 09:17:30;;;;;;;4.50;2.55;;;12.00;99.90;;;;;;25196863;23;20272;-57
2021/10/24 09:28:14;;;;;;;4.15;2.63;;;12.20;99.90;;;;;;25208658;23;20014;-58
2021/10/24 09:38:20;;;;;;;4.75;2.78;;;12.60;99.90;;;;;;25137226;23;20014;-55
2021/10/24 09:48:32;;;;;;;4.43;2.33;;;12.60;99.90;;;;;;25283973;23;20017;-55
2021/10/24 09:58:41;;;;;;;5.13;2.70;;;12.50;99.90;;;;;;25332483;23;20540;-56
2021/10/24 10:08:46;;;;;;;4.40;2.35;;;12.60;99.90;;;;;;25625325;23;20035;-57
2021/10/24 10:18:57;;;;;;;6.15;2.88;;;13.10;99.90;;;;;;25712525;23;20016;-59
2021/10/24 10:29:07;;;;;;;3.10;2.22;;;13.20;99.90;;;;;;25713090;23;20414;-59
2021/10/24 10:39:34;;;;;;;3.70;2.45;;;13.20;99.90;;;;;;25711798;23;20005;-59
2021/10/24 10:49:37;;;;;;;3.55;2.53;;;13.30;99.90;;;;;;25713690;23;20020;-58
2021/10/24 10:59:40;;;;;;;4.32;2.80;;;13.30;99.90;;;;;;25689357;23;20044;-60
2021/10/24 11:09:46;;;;;;;4.80;2.78;;;13.40;99.90;;;;;;25742583;23;20279;-60
2021/10/24 11:19:49;;;;;;;4.35;3.08;;;13.30;99.90;;;;;;25716554;23;20028;-57
2021/10/24 11:30:04;;;;;;;3.47;2.80;;;13.40;99.90;;;;;;25741715;23;20013;-60
2021/10/24 11:40:13;;;;;;;6.40;3.42;;;13.80;99.90;;;;;;25759233;23;20026;-60
2021/10/24 11:50:53;;;;;;;5.50;3.33;;;13.40;99.90;;;;;;25718171;23;20108;-59
2021/10/24 12:01:12;;;;;;;5.33;3.50;;;13.70;99.90;;;;;;25690294;23;20065;-60
2021/10/24 12:11:21;;;;;;;4.28;2.88;;;13.80;99.90;;;;;;25714045;23;20317;-60
2021/10/24 12:21:25;;;;;;;5.83;3.43;;;13.90;99.90;;;;;;25714454;23;20327;-58
2021/10/24 12:31:30;;;;;;;7.57;3.97;;;13.90;99.90;;;;;;25713025;23;20012;-58
2021/10/24 12:41:38;;;;;;;6.97;4.25;;;14.00;99.90;;;;;;25688827;23;20079;-56
2021/10/24 12:51:45;;;;;;;8.07;5.10;;;13.60;99.90;;;;;;25711759;23;20012;-59
2021/10/24 13:01:51;;;;;;;6.40;4.80;;;13.40;99.90;;;;;;25738119;23;20012;-57
2021/10/24 13:11:54;;;;;;;6.30;4.10;;;13.50;99.90;;;;;;25712816;23;20084;-59
2021/10/24 13:32:05;;;;;;;6.60;4.63;;;13.10;99.90;;;;;;25737051;23;20008;-58
2021/10/24 13:42:13;;;;;;;8.38;4.82;;;12.50;99.90;;;;;;25661330;23;20008;-56
2021/10/24 13:52:16;;;;;;;7.30;4.90;;;11.60;99.90;;;;;;25739467;23;20016;-54
2021/10/24 14:02:20;;;;;;;7.88;5.07;;;10.60;99.90;;;;;;25690767;23;20450;-57
2021/10/24 14:12:28;;;;;;;9.32;4.82;;;10.20;99.90;;;;;;25720382;23;20548;-57
2021/10/24 14:22:32;;;;;;;8.10;5.10;;;9.50;99.90;;;;;;25721273;23;20020;-57
2021/10/24 14:32:37;;;;;;;12.25;6.50;;;8.80;99.90;;;;;;25744803;23;20118;-55
2021/10/24 14:42:42;;;;;;;11.05;5.85;;;8.60;99.90;;;;;;25695072;23;20016;-53
2021/10/24 14:52:46;;;;;;;9.73;5.80;;;8.50;99.90;;;;;;25745773;23;20012;-53
2021/10/24 15:02:50;;;;;;;12.60;6.57;;;8.20;99.90;;;;;;25694627;23;20047;-56
2021/10/24 15:12:53;;;;;;;10.73;6.78;;;7.90;99.90;;;;;;25698097;23;20084;-58
2021/10/24 15:22:57;;;;;;;10.95;6.30;;;7.50;99.90;;;;;;25747933;23;20047;-53
2021/10/24 15:33:01;;;;;;;16.85;9.50;;;6.90;99.90;;;;;;25749873;23;20043;-55
2021/10/24 15:43:05;;;;;;;15.02;7.78;;;6.30;99.90;;;;;;25755017;23;20438;-58
2021/10/24 15:53:11;;;;;;;14.00;7.50;;;5.70;99.90;;;;;;25725409;23;20071;-52
2021/10/24 16:03:16;;;;;;;13.10;8.25;;;5.10;99.90;;;;;;25677857;23;20012;-56
2021/10/24 16:13:20;;;;;;;22.80;10.73;;;4.80;99.90;;;;;;25698455;23;20008;-55
2021/10/24 16:23:27;;;;;;;20.40;10.85;;;4.60;99.90;;;;;;25703092;23;20346;-57
2021/10/24 16:33:36;;;;;;;18.70;9.70;;;4.30;99.90;;;;;;25730040;23;20079;-55
2021/10/24 16:43:42;;;;;;;21.38;12.10;;;4.10;99.90;;;;;;25842018;22;20012;-54
2021/10/24 16:53:47;;;;;;;16.65;9.57;;;4.00;99.90;;;;;;25810331;22;20039;-53
2021/10/24 17:03:52;;;;;;;17.95;9.60;;;3.80;99.90;;;;;;25583577;23;20319;-54
2021/10/24 17:13:56;;;;;;;15.82;9.10;;;3.70;99.90;;;;;;25557359;23;20013;-55
2021/10/24 17:24:00;;;;;;;24.85;14.13;;;3.60;99.90;;;;;;25530247;23;20017;-54
2021/10/24 17:34:05;;;;;;;18.08;9.90;;;3.50;99.90;;;;;;25470070;23;20345;-54
2021/10/24 17:44:09;;;;;;;17.17;9.48;;;3.50;99.90;;;;;;25592456;23;20500;-53
2021/10/24 17:54:13;;;;;;;25.25;12.75;;;3.40;99.90;;;;;;25702383;23;20516;-65
2021/10/24 18:04:18;;;;;;;21.30;10.50;;;3.30;99.90;;;;;;25573039;23;20009;-62
2021/10/24 18:14:22;;;;;;;16.65;8.38;;;3.00;99.90;;;;;;25549134;23;20017;-62
2021/10/24 18:24:26;;;;;;;17.48;8.27;;;3.00;99.90;;;;;;25450346;23;20022;-63
2021/10/24 18:34:29;;;;;;;12.07;7.03;;;3.30;99.90;;;;;;25449685;23;20022;-64
2021/10/24 18:44:33;;;;;;;11.48;6.30;;;3.10;99.90;;;;;;25425866;23;20009;-60
2021/10/24 18:54:37;;;;;;;10.07;5.70;;;3.00;99.90;;;;;;25424973;23;20648;-58
2021/10/24 19:04:41;;;;;;;7.25;4.15;;;2.80;99.90;;;;;;25425386;23;20014;-60
2021/10/24 19:14:45;;;;;;;11.18;6.13;;;2.90;99.90;;;;;;25628463;23;20516;-62
2021/10/24 19:24:51;;;;;;;9.63;5.57;;;2.90;99.90;;;;;;25686786;23;20017;-64
2021/10/24 19:34:55;;;;;;;7.40;3.97;;;3.00;99.90;;;;;;25712999;23;20016;-63
2021/10/24 19:44:59;;;;;;;8.57;4.35;;;3.00;99.90;;;;;;25578207;23;20523;-56
2021/10/24 19:55:27;;;;;;;7.35;3.90;;;2.90;99.90;;;;;;25553548;23;20063;-52
2021/10/24 20:05:30;;;;;;;9.75;4.95;;;2.90;99.90;;;;;;25580417;23;20020;-53
2021/10/24 20:15:35;;;;;;;11.18;5.40;;;3.00;99.90;;;;;;25341875;23;20010;-52
2021/10/24 20:25:39;;;;;;;10.60;5.50;;;3.20;99.90;;;;;;25411248;23;20236;-52
2021/10/24 20:35:43;;;;;;;11.43;6.15;;;3.30;99.90;;;;;;25437986;23;20010;-52
2021/10/24 20:45:49;;;;;;;17.20;8.32;;;3.20;99.90;;;;;;25437566;23;20081;-52
2021/10/24 20:55:53;;;;;;;13.43;7.32;;;3.10;99.90;;;;;;25435268;23;20017;-51
2021/10/24 21:05:56;;;;;;;12.75;7.25;;;3.10;99.90;;;;;;25455732;23;20123;-52
2021/10/24 21:16:02;;;;;;;10.13;5.82;;;3.10;99.90;;;;;;25571897;23;20397;-52
2021/10/24 21:26:06;;;;;;;13.05;6.05;;;3.20;99.90;;;;;;25718312;23;20021;-52
2021/10/24 21:36:10;;;;;;;11.55;6.57;;;3.10;99.90;;;;;;25711034;23;20012;-53
2021/10/24 21:46:13;;;;;;;12.20;6.05;;;3.20;99.90;;;;;;25713543;23;20062;-53
2021/10/24 21:56:16;;;;;;;15.20;8.10;;;3.10;99.90;;;;;;25710408;23;20009;-51
2021/10/24 22:06:19;;;;;;;14.15;7.07;;;2.90;99.90;;;;;;25709196;23;20021;-52
2021/10/24 22:16:22;;;;;;;15.45;7.80;;;2.80;99.90;;;;;;25710777;23;20087;-52
2021/10/24 22:26:25;;;;;;;15.27;7.70;;;2.80;99.90;;;;;;25710365;23;20021;-54
2021/10/24 22:36:28;;;;;;;17.48;7.90;;;2.70;99.90;;;;;;25709643;23;20062;-53
2021/10/24 22:46:30;;;;;;;17.20;8.32;;;2.70;99.90;;;;;;25710030;23;20009;-52
2021/10/24 22:56:34;;;;;;;29.52;12.40;;;2.70;99.90;;;;;;25739031;23;20510;-54
2021/10/24 23:06:36;;;;;;;18.80;8.95;;;2.90;99.90;;;;;;25717029;23;20075;-52
2021/10/24 23:16:40;;;;;;;17.17;9.25;;;3.10;99.90;;;;;;25717799;23;20070;-53
2021/10/24 23:26:45;;;;;;;20.08;10.23;;;3.00;99.90;;;;;;25715028;23;20020;-52
2021/10/24 23:36:48;;;;;;;17.98;9.27;;;3.00;99.90;;;;;;25691253;23;20083;-53
2021/10/24 23:46:54;;;;;;;19.45;10.50;;;3.00;99.90;;;;;;25665874;23;20012;-51
2021/10/24 23:56:58;;;;;;;19.35;9.60;;;3.20;99.90;;;;;;25689290;23;20013;-52
